sensor_id;sensor_type;location;lat;lon;timestamp;P1;durP1;ratioP1;P2;durP2;ratioP2
22894;SDS011;11614;52.494;6.976;2022-09-09T00:00:40;5.70;;;3.30;;
22894;SDS011;11614;52.494;6.976;2022-09-09T00:06:02;4.23;;;2.40;;
22894;SDS011;11614;52.494;6.976;2022-09-09T00:08:49;5.73;;;2.93;;
22894;SDS011;11614;52.494;6.976;2022-09-09T00:11:22;4.90;;;3.43;;
22894;SDS011;11614;52.494;6.976;2022-09-09T00:13:52;4.13;;;2.87;;
22894;SDS011;11614;52.494;6.976;2022-09-09T00:16:22;5.70;;;3.37;;
22894;SDS011;11614;52.494;6.976;2022-09-09T00:21:38;5.77;;;3.20;;
22894;SDS011;11614;52.494;6.976;2022-09-09T00:24:23;4.33;;;2.67;;
22894;SDS011;11614;52.494;6.976;2022-09-09T00:26:51;4.63;;;2.73;;
22894;SDS011;11614;52.494;6.976;2022-09-09T00:31:47;4.10;;;2.87;;
22894;SDS011;11614;52.494;6.976;2022-09-09T00:34:16;4.50;;;2.77;;
22894;SDS011;11614;52.494;6.976;2022-09-09T00:36:44;4.57;;;2.70;;
22894;SDS011;11614;52.494;6.976;2022-09-09T00:39:45;5.93;;;3.00;;
22894;SDS011;11614;52.494;6.976;2022-09-09T00:44:34;5.53;;;2.10;;
22894;SDS011;11614;52.494;6.976;2022-09-09T00:54:48;5.67;;;2.03;;
22894;SDS011;11614;52.494;6.976;2022-09-09T00:59:47;2.13;;;1.17;;
22894;SDS011;11614;52.494;6.976;2022-09-09T01:02:19;3.17;;;1.23;;
22894;SDS011;11614;52.494;6.976;2022-09-09T01:04:52;3.27;;;1.80;;
22894;SDS011;11614;52.494;6.976;2022-09-09T01:07:19;2.87;;;2.10;;
22894;SDS011;11614;52.494;6.976;2022-09-09T01:12:24;2.40;;;1.87;;
22894;SDS011;11614;52.494;6.976;2022-09-09T01:14:52;4.73;;;2.20;;
22894;SDS011;11614;52.494;6.976;2022-09-09T01:17:23;3.00;;;1.33;;
22894;SDS011;11614;52.494;6.976;2022-09-09T01:22:33;4.47;;;2.13;;
22894;SDS011;11614;52.494;6.976;2022-09-09T01:27:46;4.07;;;1.70;;
22894;SDS011;11614;52.494;6.976;2022-09-09T01:30:15;2.47;;;1.70;;
22894;SDS011;11614;52.494;6.976;2022-09-09T01:35:52;5.50;;;2.47;;
22894;SDS011;11614;52.494;6.976;2022-09-09T01:38:03;5.07;;;2.47;;
22894;SDS011;11614;52.494;6.976;2022-09-09T01:40:29;3.87;;;2.40;;
22894;SDS011;11614;52.494;6.976;2022-09-09T01:42:55;4.90;;;2.70;;
22894;SDS011;11614;52.494;6.976;2022-09-09T01:45:21;4.40;;;2.93;;
22894;SDS011;11614;52.494;6.976;2022-09-09T01:47:48;5.33;;;3.00;;
22894;SDS011;11614;52.494;6.976;2022-09-09T01:50:16;4.90;;;2.67;;
22894;SDS011;11614;52.494;6.976;2022-09-09T01:52:42;5.90;;;3.00;;
22894;SDS011;11614;52.494;6.976;2022-09-09T01:55:11;5.30;;;2.97;;
22894;SDS011;11614;52.494;6.976;2022-09-09T01:57:50;5.97;;;3.17;;
22894;SDS011;11614;52.494;6.976;2022-09-09T02:00:19;5.60;;;3.43;;
22894;SDS011;11614;52.494;6.976;2022-09-09T02:07:38;9.60;;;3.70;;
22894;SDS011;11614;52.494;6.976;2022-09-09T02:10:55;6.20;;;3.80;;
22894;SDS011;11614;52.494;6.976;2022-09-09T02:13:20;6.27;;;3.83;;
22894;SDS011;11614;52.494;6.976;2022-09-09T02:15:49;5.70;;;3.70;;
22894;SDS011;11614;52.494;6.976;2022-09-09T02:18:34;5.43;;;3.50;;
22894;SDS011;11614;52.494;6.976;2022-09-09T02:21:20;6.63;;;3.97;;
22894;SDS011;11614;52.494;6.976;2022-09-09T02:23:47;6.10;;;4.20;;
22894;SDS011;11614;52.494;6.976;2022-09-09T02:26:16;6.40;;;4.33;;
22894;SDS011;11614;52.494;6.976;2022-09-09T02:28:47;6.83;;;4.83;;
22894;SDS011;11614;52.494;6.976;2022-09-09T02:31:16;9.13;;;5.23;;
22894;SDS011;11614;52.494;6.976;2022-09-09T02:33:44;8.27;;;5.50;;
22894;SDS011;11614;52.494;6.976;2022-09-09T02:36:16;10.10;;;5.57;;
22894;SDS011;11614;52.494;6.976;2022-09-09T02:38:44;10.37;;;6.50;;
22894;SDS011;11614;52.494;6.976;2022-09-09T02:41:16;9.43;;;5.47;;
22894;SDS011;11614;52.494;6.976;2022-09-09T02:43:44;8.80;;;5.13;;
22894;SDS011;11614;52.494;6.976;2022-09-09T02:48:47;10.57;;;5.80;;
22894;SDS011;11614;52.494;6.976;2022-09-09T02:51:33;8.37;;;5.20;;
22894;SDS011;11614;52.494;6.976;2022-09-09T02:56:35;8.03;;;5.40;;
22894;SDS011;11614;52.494;6.976;2022-09-09T02:59:07;9.27;;;5.30;;
22894;SDS011;11614;52.494;6.976;2022-09-09T03:01:32;9.90;;;6.00;;
22894;SDS011;11614;52.494;6.976;2022-09-09T03:04:00;10.93;;;6.30;;
22894;SDS011;11614;52.494;6.976;2022-09-09T03:06:26;7.97;;;5.70;;
22894;SDS011;11614;52.494;6.976;2022-09-09T03:08:53;7.23;;;5.57;;
22894;SDS011;11614;52.494;6.976;2022-09-09T03:11:18;7.73;;;5.70;;
22894;SDS011;11614;52.494;6.976;2022-09-09T03:13:44;10.13;;;6.27;;
22894;SDS011;11614;52.494;6.976;2022-09-09T03:16:10;8.30;;;6.53;;
22894;SDS011;11614;52.494;6.976;2022-09-09T03:18:36;9.03;;;6.03;;
22894;SDS011;11614;52.494;6.976;2022-09-09T03:21:02;12.40;;;6.53;;
22894;SDS011;11614;52.494;6.976;2022-09-09T03:23:28;10.00;;;6.33;;
22894;SDS011;11614;52.494;6.976;2022-09-09T03:25:54;8.47;;;6.27;;
22894;SDS011;11614;52.494;6.976;2022-09-09T03:28:22;11.20;;;7.47;;
22894;SDS011;11614;52.494;6.976;2022-09-09T03:30:50;10.57;;;7.57;;
22894;SDS011;11614;52.494;6.976;2022-09-09T03:33:15;11.53;;;7.07;;
22894;SDS011;11614;52.494;6.976;2022-09-09T03:35:46;9.80;;;6.40;;
22894;SDS011;11614;52.494;6.976;2022-09-09T03:38:14;9.80;;;6.93;;
22894;SDS011;11614;52.494;6.976;2022-09-09T03:40:47;11.53;;;7.50;;
22894;SDS011;11614;52.494;6.976;2022-09-09T03:43:14;10.00;;;7.13;;
22894;SDS011;11614;52.494;6.976;2022-09-09T03:45:44;11.30;;;6.80;;
22894;SDS011;11614;52.494;6.976;2022-09-09T03:48:12;11.50;;;7.37;;
22894;SDS011;11614;52.494;6.976;2022-09-09T03:50:38;10.60;;;7.20;;
22894;SDS011;11614;52.494;6.976;2022-09-09T03:53:04;11.37;;;7.27;;
22894;SDS011;11614;52.494;6.976;2022-09-09T03:55:31;14.90;;;7.20;;
22894;SDS011;11614;52.494;6.976;2022-09-09T03:57:57;12.17;;;8.17;;
22894;SDS011;11614;52.494;6.976;2022-09-09T04:00:25;10.60;;;6.77;;
22894;SDS011;11614;52.494;6.976;2022-09-09T04:02:51;11.17;;;7.07;;
22894;SDS011;11614;52.494;6.976;2022-09-09T04:05:19;9.63;;;7.03;;
22894;SDS011;11614;52.494;6.976;2022-09-09T04:07:45;10.83;;;7.30;;
22894;SDS011;11614;52.494;6.976;2022-09-09T04:10:11;11.57;;;7.80;;
22894;SDS011;11614;52.494;6.976;2022-09-09T04:12:37;11.33;;;7.30;;
22894;SDS011;11614;52.494;6.976;2022-09-09T04:15:03;10.23;;;7.00;;
22894;SDS011;11614;52.494;6.976;2022-09-09T04:17:29;11.60;;;7.93;;
22894;SDS011;11614;52.494;6.976;2022-09-09T04:19:55;11.47;;;6.73;;
22894;SDS011;11614;52.494;6.976;2022-09-09T04:22:22;10.20;;;6.83;;
22894;SDS011;11614;52.494;6.976;2022-09-09T04:24:47;12.30;;;7.77;;
22894;SDS011;11614;52.494;6.976;2022-09-09T04:27:13;11.37;;;7.77;;
22894;SDS011;11614;52.494;6.976;2022-09-09T04:29:39;14.03;;;9.07;;
22894;SDS011;11614;52.494;6.976;2022-09-09T04:32:05;12.33;;;8.77;;
22894;SDS011;11614;52.494;6.976;2022-09-09T04:34:31;11.47;;;8.23;;
22894;SDS011;11614;52.494;6.976;2022-09-09T04:36:57;14.43;;;8.07;;
22894;SDS011;11614;52.494;6.976;2022-09-09T04:39:24;10.93;;;7.93;;
22894;SDS011;11614;52.494;6.976;2022-09-09T04:41:50;14.37;;;8.60;;
22894;SDS011;11614;52.494;6.976;2022-09-09T04:44:16;15.03;;;9.00;;
22894;SDS011;11614;52.494;6.976;2022-09-09T04:46:42;13.50;;;8.00;;
22894;SDS011;11614;52.494;6.976;2022-09-09T04:49:08;11.90;;;8.73;;
22894;SDS011;11614;52.494;6.976;2022-09-09T04:51:34;15.23;;;9.13;;
22894;SDS011;11614;52.494;6.976;2022-09-09T04:54:00;15.13;;;9.90;;
22894;SDS011;11614;52.494;6.976;2022-09-09T04:56:26;14.80;;;9.37;;
22894;SDS011;11614;52.494;6.976;2022-09-09T04:58:52;14.57;;;9.57;;
22894;SDS011;11614;52.494;6.976;2022-09-09T05:01:18;16.67;;;10.50;;
22894;SDS011;11614;52.494;6.976;2022-09-09T05:03:46;15.97;;;12.10;;
22894;SDS011;11614;52.494;6.976;2022-09-09T05:06:16;14.73;;;10.80;;
22894;SDS011;11614;52.494;6.976;2022-09-09T05:08:43;14.33;;;10.53;;
22894;SDS011;11614;52.494;6.976;2022-09-09T05:14:04;15.47;;;12.20;;
22894;SDS011;11614;52.494;6.976;2022-09-09T05:16:30;15.77;;;10.70;;
22894;SDS011;11614;52.494;6.976;2022-09-09T05:18:56;18.00;;;11.70;;
22894;SDS011;11614;52.494;6.976;2022-09-09T05:21:24;17.57;;;11.60;;
22894;SDS011;11614;52.494;6.976;2022-09-09T05:23:51;17.63;;;12.63;;
22894;SDS011;11614;52.494;6.976;2022-09-09T05:26:18;19.70;;;13.27;;
22894;SDS011;11614;52.494;6.976;2022-09-09T05:28:45;15.70;;;11.60;;
22894;SDS011;11614;52.494;6.976;2022-09-09T05:31:12;14.77;;;11.07;;
22894;SDS011;11614;52.494;6.976;2022-09-09T05:33:40;15.07;;;11.60;;
22894;SDS011;11614;52.494;6.976;2022-09-09T05:36:08;15.63;;;10.43;;
22894;SDS011;11614;52.494;6.976;2022-09-09T05:38:38;12.60;;;10.60;;
22894;SDS011;11614;52.494;6.976;2022-09-09T05:41:04;14.60;;;10.10;;
22894;SDS011;11614;52.494;6.976;2022-09-09T05:43:30;14.00;;;9.63;;
22894;SDS011;11614;52.494;6.976;2022-09-09T05:46:08;14.67;;;10.00;;
22894;SDS011;11614;52.494;6.976;2022-09-09T05:48:36;16.17;;;11.13;;
22894;SDS011;11614;52.494;6.976;2022-09-09T05:51:03;14.40;;;10.60;;
22894;SDS011;11614;52.494;6.976;2022-09-09T05:53:31;16.23;;;10.63;;
22894;SDS011;11614;52.494;6.976;2022-09-09T05:56:06;15.30;;;9.70;;
22894;SDS011;11614;52.494;6.976;2022-09-09T05:58:35;12.27;;;9.83;;
22894;SDS011;11614;52.494;6.976;2022-09-09T06:01:02;14.27;;;10.63;;
22894;SDS011;11614;52.494;6.976;2022-09-09T06:03:29;12.53;;;10.50;;
22894;SDS011;11614;52.494;6.976;2022-09-09T06:05:59;18.40;;;12.47;;
22894;SDS011;11614;52.494;6.976;2022-09-09T06:08:25;13.83;;;8.63;;
22894;SDS011;11614;52.494;6.976;2022-09-09T06:10:51;11.73;;;9.33;;
22894;SDS011;11614;52.494;6.976;2022-09-09T06:13:18;13.20;;;9.23;;
22894;SDS011;11614;52.494;6.976;2022-09-09T06:15:50;12.30;;;8.87;;
22894;SDS011;11614;52.494;6.976;2022-09-09T06:18:17;15.53;;;9.90;;
22894;SDS011;11614;52.494;6.976;2022-09-09T06:20:43;11.37;;;7.73;;
22894;SDS011;11614;52.494;6.976;2022-09-09T06:23:31;12.37;;;8.20;;
22894;SDS011;11614;52.494;6.976;2022-09-09T06:26:02;13.03;;;8.23;;
22894;SDS011;11614;52.494;6.976;2022-09-09T06:28:35;9.67;;;7.40;;
22894;SDS011;11614;52.494;6.976;2022-09-09T06:31:01;13.57;;;9.17;;
22894;SDS011;11614;52.494;6.976;2022-09-09T06:33:32;11.77;;;8.17;;
22894;SDS011;11614;52.494;6.976;2022-09-09T06:36:07;10.37;;;8.67;;
22894;SDS011;11614;52.494;6.976;2022-09-09T06:38:33;11.13;;;8.23;;
22894;SDS011;11614;52.494;6.976;2022-09-09T06:40:59;12.27;;;8.67;;
22894;SDS011;11614;52.494;6.976;2022-09-09T06:43:28;10.47;;;8.40;;
22894;SDS011;11614;52.494;6.976;2022-09-09T06:45:58;10.63;;;8.47;;
22894;SDS011;11614;52.494;6.976;2022-09-09T06:48:27;11.13;;;8.73;;
22894;SDS011;11614;52.494;6.976;2022-09-09T06:51:15;11.97;;;8.97;;
22894;SDS011;11614;52.494;6.976;2022-09-09T06:53:40;10.00;;;8.20;;
22894;SDS011;11614;52.494;6.976;2022-09-09T06:59:06;13.73;;;9.23;;
22894;SDS011;11614;52.494;6.976;2022-09-09T07:01:40;7.93;;;6.77;;
22894;SDS011;11614;52.494;6.976;2022-09-09T07:04:06;12.10;;;7.00;;
22894;SDS011;11614;52.494;6.976;2022-09-09T07:06:44;9.77;;;6.67;;
22894;SDS011;11614;52.494;6.976;2022-09-09T07:09:14;12.00;;;6.63;;
22894;SDS011;11614;52.494;6.976;2022-09-09T07:11:50;9.33;;;6.70;;
22894;SDS011;11614;52.494;6.976;2022-09-09T07:14:17;10.47;;;6.23;;
22894;SDS011;11614;52.494;6.976;2022-09-09T07:16:44;8.13;;;5.77;;
22894;SDS011;11614;52.494;6.976;2022-09-09T07:19:11;9.90;;;6.27;;
22894;SDS011;11614;52.494;6.976;2022-09-09T07:21:37;8.73;;;5.90;;
22894;SDS011;11614;52.494;6.976;2022-09-09T07:24:05;10.90;;;6.83;;
22894;SDS011;11614;52.494;6.976;2022-09-09T07:26:32;9.93;;;5.70;;
22894;SDS011;11614;52.494;6.976;2022-09-09T07:28:58;7.83;;;4.57;;
22894;SDS011;11614;52.494;6.976;2022-09-09T07:31:26;6.77;;;4.80;;
22894;SDS011;11614;52.494;6.976;2022-09-09T07:33:52;7.43;;;5.07;;
22894;SDS011;11614;52.494;6.976;2022-09-09T07:36:23;9.77;;;5.43;;
22894;SDS011;11614;52.494;6.976;2022-09-09T07:38:57;7.45;;;4.97;;
22894;SDS011;11614;52.494;6.976;2022-09-09T07:43:50;7.82;;;4.57;;
22894;SDS011;11614;52.494;6.976;2022-09-09T07:46:17;6.43;;;4.15;;
22894;SDS011;11614;52.494;6.976;2022-09-09T07:48:51;6.60;;;3.65;;
22894;SDS011;11614;52.494;6.976;2022-09-09T07:51:18;6.80;;;3.80;;
22894;SDS011;11614;52.494;6.976;2022-09-09T07:53:46;6.50;;;3.63;;
22894;SDS011;11614;52.494;6.976;2022-09-09T07:56:15;11.15;;;4.10;;
22894;SDS011;11614;52.494;6.976;2022-09-09T07:58:44;3.25;;;2.60;;
22894;SDS011;11614;52.494;6.976;2022-09-09T08:01:14;6.80;;;3.42;;
22894;SDS011;11614;52.494;6.976;2022-09-09T08:03:41;7.07;;;3.55;;
22894;SDS011;11614;52.494;6.976;2022-09-09T08:06:09;6.13;;;3.20;;
22894;SDS011;11614;52.494;6.976;2022-09-09T08:08:36;6.60;;;2.60;;
22894;SDS011;11614;52.494;6.976;2022-09-09T08:13:29;8.27;;;3.95;;
22894;SDS011;11614;52.494;6.976;2022-09-09T08:16:02;6.35;;;4.13;;
22894;SDS011;11614;52.494;6.976;2022-09-09T08:18:28;8.48;;;3.67;;
22894;SDS011;11614;52.494;6.976;2022-09-09T08:20:54;7.28;;;3.20;;
22894;SDS011;11614;52.494;6.976;2022-09-09T08:23:20;9.90;;;3.47;;
22894;SDS011;11614;52.494;6.976;2022-09-09T08:25:46;9.35;;;3.97;;
22894;SDS011;11614;52.494;6.976;2022-09-09T08:28:13;11.95;;;3.22;;
22894;SDS011;11614;52.494;6.976;2022-09-09T08:30:39;6.60;;;2.92;;
22894;SDS011;11614;52.494;6.976;2022-09-09T08:33:05;10.95;;;3.90;;
22894;SDS011;11614;52.494;6.976;2022-09-09T08:35:33;4.70;;;2.25;;
22894;SDS011;11614;52.494;6.976;2022-09-09T08:37:59;3.60;;;3.30;;
22894;SDS011;11614;52.494;6.976;2022-09-09T08:40:26;4.47;;;2.20;;
22894;SDS011;11614;52.494;6.976;2022-09-09T08:42:54;5.20;;;2.70;;
22894;SDS011;11614;52.494;6.976;2022-09-09T08:45:48;6.10;;;3.72;;
22894;SDS011;11614;52.494;6.976;2022-09-09T08:48:21;8.43;;;4.72;;
22894;SDS011;11614;52.494;6.976;2022-09-09T08:50:48;5.45;;;3.50;;
22894;SDS011;11614;52.494;6.976;2022-09-09T08:53:19;4.13;;;2.70;;
22894;SDS011;11614;52.494;6.976;2022-09-09T08:58:47;5.35;;;2.90;;
22894;SDS011;11614;52.494;6.976;2022-09-09T09:11:27;6.88;;;4.07;;
22894;SDS011;11614;52.494;6.976;2022-09-09T09:19:21;6.03;;;3.58;;
22894;SDS011;11614;52.494;6.976;2022-09-09T09:24:27;7.38;;;2.75;;
22894;SDS011;11614;52.494;6.976;2022-09-09T09:26:57;6.55;;;2.78;;
22894;SDS011;11614;52.494;6.976;2022-09-09T09:29:24;6.45;;;2.42;;
22894;SDS011;11614;52.494;6.976;2022-09-09T09:31:54;9.30;;;2.67;;
22894;SDS011;11614;52.494;6.976;2022-09-09T09:34:21;5.70;;;2.78;;
22894;SDS011;11614;52.494;6.976;2022-09-09T09:36:55;4.40;;;2.95;;
22894;SDS011;11614;52.494;6.976;2022-09-09T09:39:23;5.47;;;3.05;;
22894;SDS011;11614;52.494;6.976;2022-09-09T09:41:49;5.90;;;2.70;;
22894;SDS011;11614;52.494;6.976;2022-09-09T09:44:21;6.57;;;2.58;;
22894;SDS011;11614;52.494;6.976;2022-09-09T09:46:47;5.47;;;3.38;;
22894;SDS011;11614;52.494;6.976;2022-09-09T09:49:13;5.72;;;3.15;;
22894;SDS011;11614;52.494;6.976;2022-09-09T09:51:39;7.40;;;3.25;;
22894;SDS011;11614;52.494;6.976;2022-09-09T09:54:17;6.15;;;5.60;;
22894;SDS011;11614;52.494;6.976;2022-09-09T09:56:44;5.40;;;2.47;;
22894;SDS011;11614;52.494;6.976;2022-09-09T10:02:05;5.57;;;3.05;;
22894;SDS011;11614;52.494;6.976;2022-09-09T10:04:33;6.88;;;4.40;;
22894;SDS011;11614;52.494;6.976;2022-09-09T10:06:59;5.32;;;3.33;;
22894;SDS011;11614;52.494;6.976;2022-09-09T10:09:36;5.75;;;3.72;;
22894;SDS011;11614;52.494;6.976;2022-09-09T10:19:54;8.63;;;6.40;;
22894;SDS011;11614;52.494;6.976;2022-09-09T10:22:27;6.25;;;4.85;;
22894;SDS011;11614;52.494;6.976;2022-09-09T10:33:04;7.43;;;6.65;;
22894;SDS011;11614;52.494;6.976;2022-09-09T10:38:14;6.15;;;2.30;;
22894;SDS011;11614;52.494;6.976;2022-09-09T10:54:04;6.03;;;4.30;;
22894;SDS011;11614;52.494;6.976;2022-09-09T10:56:33;2.15;;;1.90;;
22894;SDS011;11614;52.494;6.976;2022-09-09T10:59:20;4.53;;;4.07;;
22894;SDS011;11614;52.494;6.976;2022-09-09T11:01:49;7.30;;;6.63;;
22894;SDS011;11614;52.494;6.976;2022-09-09T11:04:22;4.18;;;3.58;;
22894;SDS011;11614;52.494;6.976;2022-09-09T11:06:50;8.23;;;7.65;;
22894;SDS011;11614;52.494;6.976;2022-09-09T11:09:22;8.15;;;7.45;;
22894;SDS011;11614;52.494;6.976;2022-09-09T11:11:52;6.13;;;5.78;;
22894;SDS011;11614;52.494;6.976;2022-09-09T11:14:21;7.90;;;7.30;;
22894;SDS011;11614;52.494;6.976;2022-09-09T11:16:53;3.40;;;3.05;;
22894;SDS011;11614;52.494;6.976;2022-09-09T11:21:50;5.80;;;5.22;;
22894;SDS011;11614;52.494;6.976;2022-09-09T11:24:22;7.18;;;6.57;;
22894;SDS011;11614;52.494;6.976;2022-09-09T11:26:54;7.35;;;6.95;;
22894;SDS011;11614;52.494;6.976;2022-09-09T11:31:57;4.72;;;3.47;;
22894;SDS011;11614;52.494;6.976;2022-09-09T11:37:21;3.20;;;1.92;;
22894;SDS011;11614;52.494;6.976;2022-09-09T11:40:04;5.75;;;5.18;;
22894;SDS011;11614;52.494;6.976;2022-09-09T11:42:34;9.18;;;8.68;;
22894;SDS011;11614;52.494;6.976;2022-09-09T11:47:56;7.13;;;6.20;;
22894;SDS011;11614;52.494;6.976;2022-09-09T11:52:49;6.43;;;4.00;;
22894;SDS011;11614;52.494;6.976;2022-09-09T11:55:31;4.35;;;4.00;;
22894;SDS011;11614;52.494;6.976;2022-09-09T11:58:02;4.72;;;3.65;;
22894;SDS011;11614;52.494;6.976;2022-09-09T12:00:39;4.53;;;4.25;;
22894;SDS011;11614;52.494;6.976;2022-09-09T12:05:51;4.78;;;4.47;;
22894;SDS011;11614;52.494;6.976;2022-09-09T12:08:19;7.47;;;6.97;;
22894;SDS011;11614;52.494;6.976;2022-09-09T12:10:57;6.40;;;5.93;;
22894;SDS011;11614;52.494;6.976;2022-09-09T12:13:25;7.05;;;3.30;;
22894;SDS011;11614;52.494;6.976;2022-09-09T12:15:52;1.90;;;1.80;;
22894;SDS011;11614;52.494;6.976;2022-09-09T12:18:35;6.65;;;2.90;;
22894;SDS011;11614;52.494;6.976;2022-09-09T12:23:47;6.50;;;5.70;;
22894;SDS011;11614;52.494;6.976;2022-09-09T12:29:27;4.88;;;3.97;;
22894;SDS011;11614;52.494;6.976;2022-09-09T12:31:58;4.85;;;3.20;;
22894;SDS011;11614;52.494;6.976;2022-09-09T12:34:41;5.10;;;3.03;;
22894;SDS011;11614;52.494;6.976;2022-09-09T12:39:41;5.97;;;3.13;;
22894;SDS011;11614;52.494;6.976;2022-09-09T12:42:17;3.33;;;3.03;;
22894;SDS011;11614;52.494;6.976;2022-09-09T12:47:18;3.58;;;2.38;;
22894;SDS011;11614;52.494;6.976;2022-09-09T12:49:46;2.58;;;2.22;;
22894;SDS011;11614;52.494;6.976;2022-09-09T12:52:17;4.10;;;2.72;;
22894;SDS011;11614;52.494;6.976;2022-09-09T12:54:45;4.82;;;2.55;;
22894;SDS011;11614;52.494;6.976;2022-09-09T12:57:12;4.40;;;4.00;;
22894;SDS011;11614;52.494;6.976;2022-09-09T12:59:40;3.92;;;3.60;;
22894;SDS011;11614;52.494;6.976;2022-09-09T13:02:23;6.32;;;2.90;;
22894;SDS011;11614;52.494;6.976;2022-09-09T13:04:50;8.60;;;3.45;;
22894;SDS011;11614;52.494;6.976;2022-09-09T13:07:17;4.53;;;3.88;;
22894;SDS011;11614;52.494;6.976;2022-09-09T13:09:44;7.78;;;7.30;;
22894;SDS011;11614;52.494;6.976;2022-09-09T13:12:13;5.45;;;5.15;;
22894;SDS011;11614;52.494;6.976;2022-09-09T13:14:39;6.95;;;6.45;;
22894;SDS011;11614;52.494;6.976;2022-09-09T13:17:15;7.47;;;7.07;;
22894;SDS011;11614;52.494;6.976;2022-09-09T13:19:43;8.02;;;7.13;;
22894;SDS011;11614;52.494;6.976;2022-09-09T13:22:33;8.18;;;7.72;;
22894;SDS011;11614;52.494;6.976;2022-09-09T13:25:20;4.20;;;3.72;;
22894;SDS011;11614;52.494;6.976;2022-09-09T13:30:23;3.38;;;2.58;;
22894;SDS011;11614;52.494;6.976;2022-09-09T13:35:35;4.35;;;4.00;;
22894;SDS011;11614;52.494;6.976;2022-09-09T13:38:08;5.07;;;4.57;;
22894;SDS011;11614;52.494;6.976;2022-09-09T13:40:34;4.28;;;3.65;;
22894;SDS011;11614;52.494;6.976;2022-09-09T13:43:01;3.83;;;2.80;;
22894;SDS011;11614;52.494;6.976;2022-09-09T13:45:28;4.65;;;4.35;;
22894;SDS011;11614;52.494;6.976;2022-09-09T13:47:54;7.97;;;7.47;;
22894;SDS011;11614;52.494;6.976;2022-09-09T13:50:21;3.47;;;3.25;;
22894;SDS011;11614;52.494;6.976;2022-09-09T13:52:48;3.15;;;3.00;;
22894;SDS011;11614;52.494;6.976;2022-09-09T13:55:16;4.38;;;4.03;;
22894;SDS011;11614;52.494;6.976;2022-09-09T13:58:01;2.80;;;2.55;;
22894;SDS011;11614;52.494;6.976;2022-09-09T14:00:33;6.47;;;6.28;;
22894;SDS011;11614;52.494;6.976;2022-09-09T14:03:00;4.53;;;4.30;;
22894;SDS011;11614;52.494;6.976;2022-09-09T14:05:32;4.50;;;4.30;;
22894;SDS011;11614;52.494;6.976;2022-09-09T14:07:58;3.85;;;3.70;;
22894;SDS011;11614;52.494;6.976;2022-09-09T14:10:25;2.25;;;2.15;;
22894;SDS011;11614;52.494;6.976;2022-09-09T14:12:51;4.20;;;3.90;;
22894;SDS011;11614;52.494;6.976;2022-09-09T14:15:18;4.53;;;4.15;;
22894;SDS011;11614;52.494;6.976;2022-09-09T14:17:45;3.38;;;3.08;;
22894;SDS011;11614;52.494;6.976;2022-09-09T14:20:11;3.20;;;2.85;;
22894;SDS011;11614;52.494;6.976;2022-09-09T14:22:40;2.83;;;2.63;;
22894;SDS011;11614;52.494;6.976;2022-09-09T14:25:06;4.90;;;2.45;;
22894;SDS011;11614;52.494;6.976;2022-09-09T14:27:32;5.75;;;3.50;;
22894;SDS011;11614;52.494;6.976;2022-09-09T14:29:58;5.68;;;5.38;;
22894;SDS011;11614;52.494;6.976;2022-09-09T14:32:25;3.58;;;2.40;;
22894;SDS011;11614;52.494;6.976;2022-09-09T14:34:51;2.85;;;2.53;;
22894;SDS011;11614;52.494;6.976;2022-09-09T14:37:18;4.53;;;3.00;;
22894;SDS011;11614;52.494;6.976;2022-09-09T14:39:45;2.40;;;2.20;;
22894;SDS011;11614;52.494;6.976;2022-09-09T14:42:12;4.88;;;4.57;;
22894;SDS011;11614;52.494;6.976;2022-09-09T14:44:38;4.43;;;4.13;;
22894;SDS011;11614;52.494;6.976;2022-09-09T14:47:05;7.47;;;7.10;;
22894;SDS011;11614;52.494;6.976;2022-09-09T14:49:32;2.38;;;2.28;;
22894;SDS011;11614;52.494;6.976;2022-09-09T14:51:58;7.68;;;7.28;;
22894;SDS011;11614;52.494;6.976;2022-09-09T14:54:24;2.67;;;2.55;;
22894;SDS011;11614;52.494;6.976;2022-09-09T14:56:51;4.80;;;2.67;;
22894;SDS011;11614;52.494;6.976;2022-09-09T14:59:16;3.63;;;3.28;;
22894;SDS011;11614;52.494;6.976;2022-09-09T15:01:42;1.80;;;1.67;;
22894;SDS011;11614;52.494;6.976;2022-09-09T15:04:10;5.15;;;4.75;;
22894;SDS011;11614;52.494;6.976;2022-09-09T15:06:37;2.17;;;1.92;;
22894;SDS011;11614;52.494;6.976;2022-09-09T15:09:04;2.25;;;0.90;;
22894;SDS011;11614;52.494;6.976;2022-09-09T15:11:31;1.85;;;1.30;;
22894;SDS011;11614;52.494;6.976;2022-09-09T15:14:02;1.65;;;1.27;;
22894;SDS011;11614;52.494;6.976;2022-09-09T15:16:28;3.05;;;1.00;;
22894;SDS011;11614;52.494;6.976;2022-09-09T15:18:55;3.55;;;1.40;;
22894;SDS011;11614;52.494;6.976;2022-09-09T15:21:22;3.30;;;3.00;;
22894;SDS011;11614;52.494;6.976;2022-09-09T15:23:49;3.67;;;3.38;;
22894;SDS011;11614;52.494;6.976;2022-09-09T15:26:16;2.65;;;2.08;;
22894;SDS011;11614;52.494;6.976;2022-09-09T15:28:43;4.05;;;3.13;;
22894;SDS011;11614;52.494;6.976;2022-09-09T15:31:13;5.00;;;4.65;;
22894;SDS011;11614;52.494;6.976;2022-09-09T15:33:39;2.90;;;2.63;;
22894;SDS011;11614;52.494;6.976;2022-09-09T15:36:39;4.90;;;3.95;;
22894;SDS011;11614;52.494;6.976;2022-09-09T15:39:01;3.42;;;2.60;;
22894;SDS011;11614;52.494;6.976;2022-09-09T15:41:28;2.63;;;2.30;;
22894;SDS011;11614;52.494;6.976;2022-09-09T15:43:56;3.88;;;3.55;;
22894;SDS011;11614;52.494;6.976;2022-09-09T15:48:52;5.25;;;2.67;;
22894;SDS011;11614;52.494;6.976;2022-09-09T15:51:18;3.38;;;3.13;;
22894;SDS011;11614;52.494;6.976;2022-09-09T15:53:44;2.65;;;2.03;;
22894;SDS011;11614;52.494;6.976;2022-09-09T15:56:10;6.03;;;5.20;;
22894;SDS011;11614;52.494;6.976;2022-09-09T15:58:36;3.10;;;2.33;;
22894;SDS011;11614;52.494;6.976;2022-09-09T16:01:03;4.63;;;2.70;;
22894;SDS011;11614;52.494;6.976;2022-09-09T16:03:33;3.28;;;3.00;;
22894;SDS011;11614;52.494;6.976;2022-09-09T16:05:59;6.93;;;6.43;;
22894;SDS011;11614;52.494;6.976;2022-09-09T16:08:30;3.85;;;3.10;;
22894;SDS011;11614;52.494;6.976;2022-09-09T16:10:56;3.15;;;2.40;;
22894;SDS011;11614;52.494;6.976;2022-09-09T16:13:32;4.10;;;3.65;;
22894;SDS011;11614;52.494;6.976;2022-09-09T16:15:58;4.03;;;3.55;;
22894;SDS011;11614;52.494;6.976;2022-09-09T16:18:24;6.90;;;2.85;;
22894;SDS011;11614;52.494;6.976;2022-09-09T16:20:54;5.90;;;2.83;;
22894;SDS011;11614;52.494;6.976;2022-09-09T16:23:20;3.78;;;3.47;;
22894;SDS011;11614;52.494;6.976;2022-09-09T16:25:55;3.88;;;3.58;;
22894;SDS011;11614;52.494;6.976;2022-09-09T16:28:21;3.60;;;3.30;;
22894;SDS011;11614;52.494;6.976;2022-09-09T16:30:48;4.80;;;3.38;;
22894;SDS011;11614;52.494;6.976;2022-09-09T16:33:14;4.82;;;3.80;;
22894;SDS011;11614;52.494;6.976;2022-09-09T16:35:41;4.07;;;3.60;;
22894;SDS011;11614;52.494;6.976;2022-09-09T16:38:07;4.65;;;3.72;;
22894;SDS011;11614;52.494;6.976;2022-09-09T16:40:34;3.72;;;3.35;;
22894;SDS011;11614;52.494;6.976;2022-09-09T16:43:00;4.80;;;3.70;;
22894;SDS011;11614;52.494;6.976;2022-09-09T16:45:26;4.88;;;4.57;;
22894;SDS011;11614;52.494;6.976;2022-09-09T16:47:52;5.63;;;5.22;;
22894;SDS011;11614;52.494;6.976;2022-09-09T16:50:19;5.57;;;2.58;;
22894;SDS011;11614;52.494;6.976;2022-09-09T16:52:45;5.25;;;2.78;;
22894;SDS011;11614;52.494;6.976;2022-09-09T16:55:11;3.95;;;2.50;;
22894;SDS011;11614;52.494;6.976;2022-09-09T16:57:37;5.28;;;3.72;;
22894;SDS011;11614;52.494;6.976;2022-09-09T17:00:03;5.85;;;3.10;;
22894;SDS011;11614;52.494;6.976;2022-09-09T17:02:31;4.28;;;3.33;;
22894;SDS011;11614;52.494;6.976;2022-09-09T17:04:57;4.63;;;3.20;;
22894;SDS011;11614;52.494;6.976;2022-09-09T17:07:24;5.57;;;2.30;;
22894;SDS011;11614;52.494;6.976;2022-09-09T17:09:50;4.65;;;2.65;;
22894;SDS011;11614;52.494;6.976;2022-09-09T17:12:19;4.05;;;2.53;;
22894;SDS011;11614;52.494;6.976;2022-09-09T17:14:46;4.85;;;2.83;;
22894;SDS011;11614;52.494;6.976;2022-09-09T17:17:12;4.45;;;2.05;;